»·PEaware :: N130F KAVX-KSBA

N130F :: KAVX-KSBA

FLIGHT INFORMATION

Flight Status: Arrived
Operator: Privately registered:
United States
More flights under this callsign
Pilot: David J. (24489)
Aircraft: PIPER PA-24 COMMANCHE
(PA24)
More flights by this aircraft type
Origin: KAVX Catalina
United States
Destination: KSBA Santa Barbara Mun
United States
More flights between these airports :: More routes between these airports
Route: +
File this flight plan on PilotEdge
Remarks:
Altitude:
(Current/Filed)
10,500ft
Speed:
(Current/Filed)
0kts
Departed: 29-Mar-20 09:10 PM
Arrived: 29-Mar-20 09:59 PM
Distance/Time
Traveled:
94nm/0:49
Distance/Time
To Go:
Arrived

Flight Plot

Page will automatically refresh every two minutes.


Map Options




Map Legend


Flown Route
Filed Route
Departure Airport
Arrival Airport
Navaid (VOR, NDB)
Fix

Horizontal Profiles

Position Reports

Time Latitude Longitude Heading Altitude Ground
Speed
29-Mar-20 21:07 33.404549 -118.415024 347 1605ft 12kts
29-Mar-20 21:08 33.406775 -118.412066 54 1605ft 3kts
29-Mar-20 21:09 33.406713 -118.412844 237 1605ft 47kts
29-Mar-20 21:10 33.389549 -118.444092 243 2260ft 144kts
29-Mar-20 21:11 33.388397 -118.493812 280 1263ft 139kts
29-Mar-20 21:12 33.400339 -118.538364 297 1416ft 142kts
29-Mar-20 21:13 33.422497 -118.575566 328 2139ft 128kts
29-Mar-20 21:14 33.454519 -118.586998 336 3857ft 98kts
29-Mar-20 21:15 33.479235 -118.604521 321 5684ft 84kts
29-Mar-20 21:16 33.492140 -118.633281 304 6654ft 135kts
29-Mar-20 21:17 33.516841 -118.670390 315 6720ft 150kts
29-Mar-20 21:18 33.548123 -118.707645 313 6481ft 157kts
29-Mar-20 21:19 33.576979 -118.744566 313 6483ft 150kts
29-Mar-20 21:20 33.605724 -118.780893 312 6481ft 149kts
29-Mar-20 21:21 33.632510 -118.815310 313 6478ft 149kts
29-Mar-20 21:22 33.661203 -118.851540 313 6488ft 149kts
29-Mar-20 21:23 33.689573 -118.888010 313 6489ft 148kts
29-Mar-20 21:24 33.717910 -118.924164 313 6490ft 148kts
29-Mar-20 21:25 33.745861 -118.959854 313 6489ft 148kts
29-Mar-20 21:26 33.774196 -118.996311 313 6489ft 148kts
29-Mar-20 21:27 33.802527 -119.032365 313 6479ft 148kts
29-Mar-20 21:28 33.830610 -119.068642 313 6480ft 147kts
29-Mar-20 21:29 33.859428 -119.105485 313 6109ft 153kts
29-Mar-20 21:30 33.886437 -119.140407 313 6055ft 139kts
29-Mar-20 21:31 33.914081 -119.175761 313 5783ft 141kts
29-Mar-20 21:32 33.940274 -119.209637 313 5760ft 140kts
29-Mar-20 21:33 33.967140 -119.244164 313 5595ft 141kts
29-Mar-20 21:34 33.993862 -119.278903 313 5408ft 141kts
29-Mar-20 21:35 34.020923 -119.313576 313 5107ft 143kts
29-Mar-20 21:36 34.047636 -119.348177 312 4960ft 137kts
29-Mar-20 21:37 34.073858 -119.382265 313 4749ft 133kts
29-Mar-20 21:38 34.099512 -119.415353 312 4559ft 137kts
29-Mar-20 21:39 34.125218 -119.448786 313 4536ft 135kts
29-Mar-20 21:40 34.151509 -119.482766 312 4072ft 138kts
29-Mar-20 21:41 34.177412 -119.516608 312 3819ft 136kts
29-Mar-20 21:42 34.203127 -119.549912 312 3676ft 134kts
29-Mar-20 21:43 34.228524 -119.583087 312 3578ft 135kts
29-Mar-20 21:44 34.254124 -119.616405 312 3509ft 134kts
29-Mar-20 21:45 34.280036 -119.650269 312 3135ft 134kts
29-Mar-20 21:46 34.302765 -119.679927 312 2798ft 114kts
29-Mar-20 21:47 34.325727 -119.709953 312 2872ft 123kts
29-Mar-20 21:48 34.349970 -119.741651 312 2714ft 131kts
29-Mar-20 21:49 34.373763 -119.772669 312 2151ft 121kts
29-Mar-20 21:50 34.377775 -119.742854 120 1204ft 149kts
29-Mar-20 21:51 34.359961 -119.706755 120 1187ft 122kts
29-Mar-20 21:52 34.368616 -119.670167 8 1299ft 135kts
29-Mar-20 21:53 34.401491 -119.680241 320 1866ft 123kts
29-Mar-20 21:54 34.422707 -119.714433 295 2091ft 137kts
29-Mar-20 21:56 34.428699 -119.761285 275 1203ft 132kts
29-Mar-20 21:57 34.428504 -119.797396 272 612ft 81kts
29-Mar-20 21:58 34.427998 -119.824586 268 220ft 75kts
29-Mar-20 21:59 34.427653 -119.843773 267 13ft 31kts
29-Mar-20 22:00 34.428519 -119.845471 71 13ft 0kts
29-Mar-20 22:01 34.428521 -119.845465 71 13ft 0kts
29-Mar-20 22:02 34.429510 -119.842989 65 13ft 20kts
29-Mar-20 22:03 34.431432 -119.837470 67 13ft 11kts
29-Mar-20 22:04 34.432432 -119.836136 58 13ft 3kts
29-Mar-20 22:05 34.432452 -119.836077 73 13ft 0kts
29-Mar-20 22:06 34.432454 -119.836071 72 13ft 0kts

Navigation Log

Ident Type
Flight plan parsing failed, navigation log unavailable